createdAt,value
2022-12-13T00:07:09.334Z,77.95
2022-12-13T00:17:13.356Z,77.92
2022-12-13T00:27:17.380Z,78.02
2022-12-13T00:37:21.083Z,77.79
2022-12-13T00:47:25.190Z,77.81
2022-12-13T00:57:29.455Z,77.72
2022-12-13T01:07:33.065Z,77.59
2022-12-13T01:17:36.858Z,77.08
2022-12-13T01:27:40.657Z,76.98
2022-12-13T01:37:44.311Z,76.73
2022-12-13T01:47:57.085Z,76.63
2022-12-13T01:58:03.761Z,76.63
2022-12-13T02:08:11.382Z,76.86
2022-12-13T02:18:18.151Z,76.57
2022-12-13T02:28:54.455Z,76.26
2022-12-13T02:39:04.062Z,76.13
2022-12-13T02:49:10.523Z,76.42
2022-12-13T02:59:15.723Z,76.46
2022-12-13T03:09:38.144Z,76.25
2022-12-13T03:19:41.937Z,76.12
2022-12-13T03:29:46.062Z,76.36
2022-12-13T03:39:49.960Z,76.44
2022-12-13T03:49:54.356Z,76.47
2022-12-13T03:59:58.766Z,76.43
2022-12-13T04:10:04.292Z,76.37
2022-12-13T04:20:28.355Z,76.07
2022-12-13T04:30:32.491Z,76.50
2022-12-13T04:40:36.513Z,76.68
2022-12-13T04:50:40.577Z,76.21
2022-12-13T05:00:44.623Z,76.09
2022-12-13T05:10:48.791Z,76.05
2022-12-13T05:20:53.806Z,76.12
2022-12-13T05:31:23.657Z,75.90
2022-12-13T05:41:32.289Z,75.61
2022-12-13T05:51:36.393Z,75.53
2022-12-13T06:01:43.554Z,75.76
2022-12-13T06:11:48.573Z,75.19
2022-12-13T06:21:54.281Z,74.91
2022-12-13T06:32:03.343Z,74.81
2022-12-13T06:42:14.820Z,74.95
2022-12-13T06:52:26.191Z,74.95
2022-12-13T07:02:30.012Z,74.63
2022-12-13T07:12:34.105Z,74.54
2022-12-13T07:22:46.755Z,74.71
2022-12-13T07:32:51.310Z,75.25
2022-12-13T07:42:57.055Z,75.44
2022-12-13T07:53:08.895Z,75.58
2022-12-13T08:03:24.176Z,75.63
2022-12-13T08:13:28.557Z,75.45
2022-12-13T08:23:34.437Z,74.82
2022-12-13T08:33:40.737Z,74.06
2022-12-13T08:43:44.555Z,73.49
2022-12-13T08:53:48.255Z,72.87
2022-12-13T09:03:52.329Z,72.38
2022-12-13T09:14:01.502Z,71.94
2022-12-13T09:24:13.392Z,71.45
2022-12-13T09:34:28.568Z,70.64
2022-12-13T09:44:53.655Z,69.51
2022-12-13T09:55:21.447Z,68.79
2022-12-13T10:05:39.594Z,67.71
2022-12-13T10:16:13.626Z,68.57
2022-12-13T10:26:23.931Z,72.69
2022-12-13T10:36:33.110Z,71.81
2022-12-13T10:46:42.572Z,70.11
2022-12-13T10:56:50.296Z,70.31
2022-12-13T11:06:54.218Z,69.63
2022-12-13T11:17:01.474Z,69.32
2022-12-13T11:27:33.524Z,69.18
2022-12-13T11:37:45.620Z,69.54
2022-12-13T11:48:04.435Z,69.38
2022-12-13T11:58:32.568Z,68.42
2022-12-13T12:08:48.243Z,68.92
2022-12-13T12:18:53.499Z,68.69
2022-12-13T12:29:15.920Z,68.38
2022-12-13T12:39:38.082Z,67.81
2022-12-13T12:49:54.320Z,67.74
2022-12-13T13:00:09.885Z,67.43
2022-12-13T13:10:25.768Z,66.45
2022-12-13T13:20:30.948Z,66.99
2022-12-13T13:30:35.993Z,67.24
2022-12-13T13:40:39.884Z,67.08
2022-12-13T13:51:02.780Z,67.57
2022-12-13T14:01:44.465Z,68.12
2022-12-13T14:12:22.566Z,68.81
2022-12-13T14:23:04.291Z,69.05
2022-12-13T14:33:20.744Z,70.14
2022-12-13T14:43:30.517Z,70.20
2022-12-13T14:53:41.691Z,69.94
2022-12-13T15:03:46.007Z,70.31
2022-12-13T15:13:53.114Z,70.73
2022-12-13T15:23:59.035Z,71.58
2022-12-13T15:34:30.197Z,71.87
2022-12-13T15:44:48.116Z,72.47
2022-12-13T15:54:56.685Z,72.59
2022-12-13T16:05:09.809Z,72.97
2022-12-13T16:15:51.277Z,73.00
2022-12-13T16:25:55.674Z,73.23
2022-12-13T16:36:00.256Z,73.41
2022-12-13T16:47:15.373Z,73.39
2022-12-13T16:56:31.099Z,72.25
2022-12-13T17:06:36.204Z,71.80
2022-12-13T17:16:41.455Z,71.37
2022-12-13T17:26:54.693Z,71.80
2022-12-13T17:37:05.617Z,71.37
2022-12-13T17:47:14.816Z,71.66
2022-12-13T17:57:19.880Z,71.21
2022-12-13T18:07:25.731Z,70.40
2022-12-13T18:18:08.930Z,70.47
2022-12-13T18:28:01.197Z,70.65
2022-12-13T18:38:07.312Z,70.17
2022-12-13T18:48:13.806Z,69.64
2022-12-13T18:58:22.178Z,69.02
2022-12-13T19:08:31.442Z,68.62
2022-12-13T19:18:38.958Z,67.78
2022-12-13T19:28:46.041Z,67.37
2022-12-13T19:38:57.534Z,67.45
2022-12-13T19:49:05.629Z,67.25
2022-12-13T19:59:13.903Z,67.15
2022-12-13T20:09:33.426Z,67.74
2022-12-13T20:19:41.817Z,67.88
2022-12-13T20:29:50.590Z,68.03
2022-12-13T20:40:01.807Z,68.63
2022-12-13T20:50:11.511Z,68.21
2022-12-13T21:00:19.717Z,68.45
2022-12-13T21:10:28.294Z,67.56
2022-12-13T21:20:34.047Z,67.61
2022-12-13T21:30:39.833Z,69.04
2022-12-13T21:40:51.580Z,69.15
2022-12-13T21:50:56.504Z,69.36
2022-12-13T22:01:00.763Z,69.85
2022-12-13T22:11:20.886Z,69.98
2022-12-13T22:21:26.371Z,68.78
2022-12-13T22:31:30.327Z,69.13
2022-12-13T22:41:34.979Z,69.52
2022-12-13T22:51:40.283Z,70.76
2022-12-13T23:01:47.041Z,71.95
2022-12-13T23:12:10.636Z,71.50
2022-12-13T23:22:14.925Z,71.17
2022-12-13T23:32:19.810Z,70.96
2022-12-13T23:42:23.991Z,70.90
2022-12-13T23:52:27.755Z,70.78
